Time;durP1;ratioP1;P1;durP2;ratioP2;P2;SDS_P1;SDS_P2;PMS_P1;PMS_P2;Temp;Humidity;BMP_temperature;BMP_pressure;BME280_temperature;BME280_humidity;BME280_pressure;Samples;Min_cycle;Max_cycle;Signal;HPM_P1;HPM_P2
2021/03/01 00:01:24;;;;;;;0.50;0.50;;;4.00;99.90;;;;;;4912748;29;20217;-79
2021/03/01 00:07:12;;;;;;;0.50;0.50;;;4.20;99.90;;;;;;5115298;23;20195;-81
2021/03/01 00:09:39;;;;;;;0.50;0.50;;;4.70;99.90;;;;;;4937851;29;20227;-80
2021/03/01 00:12:06;;;;;;;0.40;0.40;;;3.80;99.90;;;;;;4942718;29;20220;-79
2021/03/01 00:14:35;;;;;;;0.50;0.50;;;4.10;99.90;;;;;;4942665;29;20354;-80
2021/03/01 00:17:02;;;;;;;0.50;0.50;;;4.10;99.90;;;;;;4942627;29;20216;-81
2021/03/01 00:19:33;;;;;;;0.50;0.50;;;4.00;99.90;;;;;;4942553;29;20216;-80
2021/03/01 00:22:09;;;;;;;0.50;0.50;;;3.60;99.90;;;;;;4942566;29;20201;-81
2021/03/01 00:24:36;;;;;;;0.40;0.40;;;3.60;99.90;;;;;;4942632;29;20206;-81
2021/03/01 00:27:06;;;;;;;0.50;0.50;;;4.10;99.90;;;;;;4942324;29;20239;-80
2021/03/01 00:29:33;;;;;;;0.50;0.50;;;4.00;99.90;;;;;;4942092;29;20189;-81
2021/03/01 00:32:00;;;;;;;0.50;0.50;;;4.60;99.90;;;;;;4937874;29;20209;-80
2021/03/01 00:34:27;;;;;;;0.40;0.40;;;3.90;99.90;;;;;;4937798;29;20224;-80
2021/03/01 00:36:53;;;;;;;0.50;0.50;;;4.30;99.90;;;;;;4937772;29;20221;-80
2021/03/01 00:39:20;;;;;;;0.50;0.50;;;3.60;99.90;;;;;;4937897;29;20221;-80
2021/03/01 00:41:52;;;;;;;0.40;0.40;;;4.00;99.90;;;;;;4939122;29;20204;-81
2021/03/01 00:44:22;;;;;;;0.50;0.50;;;4.00;99.90;;;;;;4942776;29;20371;-80
2021/03/01 00:46:50;;;;;;;0.50;0.50;;;4.10;99.90;;;;;;4942755;29;20216;-81
2021/03/01 00:49:19;;;;;;;0.50;0.50;;;4.20;99.90;;;;;;4941295;29;20212;-81
2021/03/01 00:51:46;;;;;;;0.50;0.50;;;5.90;99.90;;;;;;4941148;29;20236;-81
2021/03/01 00:54:13;;;;;;;0.50;0.50;;;4.20;99.90;;;;;;4941769;29;20200;-81
2021/03/01 00:56:39;;;;;;;0.50;0.50;;;4.10;99.90;;;;;;4925315;23;2592776;-81
2021/03/01 00:59:06;;;;;;;0.50;0.50;;;5.60;99.90;;;;;;4942977;29;20205;-81
2021/03/01 01:01:33;;;;;;;0.50;0.50;;;4.10;99.90;;;;;;4941894;29;20196;-81
2021/03/01 01:04:01;;;;;;;0.50;0.50;;;4.10;99.90;;;;;;4943353;29;20199;-81
2021/03/01 01:06:28;;;;;;;0.50;0.50;;;4.10;99.90;;;;;;4943413;29;20181;-80
2021/03/01 01:08:54;;;;;;;0.50;0.50;;;4.10;99.90;;;;;;4943936;29;20209;-80
2021/03/01 01:11:23;;;;;;;0.50;0.50;;;4.10;99.90;;;;;;4943411;29;20182;-81
2021/03/01 01:13:50;;;;;;;0.50;0.50;;;4.00;99.90;;;;;;4943373;29;20200;-81
2021/03/01 01:16:17;;;;;;;0.47;0.47;;;4.50;99.90;;;;;;4942980;29;20209;-80
2021/03/01 01:18:44;;;;;;;0.50;0.50;;;4.80;99.90;;;;;;4943336;29;20205;-81
2021/03/01 01:21:12;;;;;;;0.50;0.50;;;4.10;99.90;;;;;;4942705;29;20277;-81
2021/03/01 01:23:42;;;;;;;0.50;0.50;;;4.10;99.90;;;;;;4943167;29;20204;-81
2021/03/01 01:26:13;;;;;;;0.50;0.50;;;4.50;99.90;;;;;;4940054;29;20225;-81
2021/03/01 01:28:40;;;;;;;0.50;0.50;;;4.50;99.90;;;;;;4940286;29;20216;-81
2021/03/01 01:31:06;;;;;;;0.50;0.50;;;3.90;99.90;;;;;;4939768;29;20257;-81
2021/03/01 01:33:35;;;;;;;0.50;0.50;;;4.10;99.90;;;;;;4940805;29;20201;-81
2021/03/01 01:36:01;;;;;;;0.50;0.50;;;4.00;99.90;;;;;;4940448;29;20272;-81
2021/03/01 01:38:31;;;;;;;0.47;0.47;;;3.50;99.90;;;;;;4941662;29;20201;-81
2021/03/01 01:40:58;;;;;;;0.50;0.50;;;4.10;99.90;;;;;;4940867;29;20205;-81
2021/03/01 01:43:27;;;;;;;0.50;0.50;;;4.20;99.90;;;;;;4940717;29;20208;-81
2021/03/01 01:46:04;;;;;;;0.50;0.50;;;4.20;99.90;;;;;;4941163;29;20201;-81
2021/03/01 01:51:06;;;;;;;0.50;0.50;;;4.10;99.90;;;;;;5694388;23;20248;-82
2021/03/01 01:53:34;;;;;;;0.50;0.50;;;4.10;99.90;;;;;;5230204;23;20228;-80
2021/03/01 01:56:04;;;;;;;0.50;0.50;;;4.10;99.90;;;;;;4932883;29;20212;-81
2021/03/01 01:58:30;;;;;;;0.50;0.50;;;4.00;99.90;;;;;;4933077;29;20225;-80
2021/03/01 02:00:57;;;;;;;0.50;0.50;;;4.80;99.90;;;;;;4934722;29;20209;-80
2021/03/01 02:03:44;;;;;;;0.50;0.50;;;5.40;99.90;;;;;;4935857;29;20236;-80
2021/03/01 02:11:31;;;;;;;0.50;0.50;;;4.10;99.90;;;;;;5545737;23;20477;-81
2021/03/01 02:16:36;;;;;;;0.50;0.50;;;4.10;99.90;;;;;;5429997;23;20226;-80
2021/03/01 02:19:03;;;;;;;0.60;0.60;;;4.20;99.90;;;;;;4963702;23;20292;-80
2021/03/01 02:24:10;;;;;;;0.50;0.50;;;4.10;99.90;;;;;;4939462;29;20245;-80
2021/03/01 02:26:41;;;;;;;0.50;0.50;;;4.10;99.90;;;;;;4942352;29;20165;-80
2021/03/01 02:32:10;;;;;;;0.50;0.50;;;4.00;99.90;;;;;;5889042;23;20180;-82
2021/03/01 02:37:28;;;;;;;0.50;0.50;;;4.10;99.90;;;;;;5446274;23;20225;-79
2021/03/01 02:42:33;;;;;;;0.50;0.50;;;4.00;99.90;;;;;;5220266;23;20267;-81
2021/03/01 02:45:03;;;;;;;0.50;0.50;;;5.10;99.90;;;;;;4936255;29;20225;-80
2021/03/01 02:47:32;;;;;;;0.50;0.50;;;4.00;99.90;;;;;;4942158;29;20694;-80
2021/03/01 02:50:01;;;;;;;0.50;0.50;;;4.00;99.90;;;;;;4941677;29;20205;-80
2021/03/01 03:05:38;;;;;;;0.50;0.50;;;4.00;99.90;;;;;;5262653;23;20273;-81
2021/03/01 04:30:49;;;;;;;0.60;0.60;;;4.00;99.90;;;;;;5474391;23;20213;-81
2021/03/01 04:33:28;;;;;;;0.60;0.60;;;5.20;99.90;;;;;;4927866;29;20180;-82
2021/03/01 05:12:41;;;;;;;0.60;0.60;;;4.00;99.90;;;;;;5123323;23;20229;-80
2021/03/01 05:15:48;;;;;;;0.60;0.60;;;4.10;99.90;;;;;;4941959;29;20189;-82
2021/03/01 05:18:15;;;;;;;0.50;0.50;;;4.60;99.90;;;;;;4941359;29;20443;-81
2021/03/01 05:21:15;;;;;;;0.50;0.50;;;3.90;99.90;;;;;;4941616;29;20200;-82
2021/03/01 05:23:57;;;;;;;0.50;0.50;;;5.00;99.90;;;;;;4942165;29;20217;-82
2021/03/01 05:26:57;;;;;;;0.50;0.50;;;3.90;99.90;;;;;;4940143;29;20213;-83
2021/03/01 05:29:27;;;;;;;0.50;0.50;;;4.10;99.90;;;;;;4941625;29;20201;-82
2021/03/01 05:31:58;;;;;;;0.60;0.60;;;3.90;99.90;;;;;;4938880;29;20193;-82
2021/03/01 05:34:41;;;;;;;0.60;0.60;;;4.00;99.90;;;;;;4939546;29;20208;-82
2021/03/01 05:37:09;;;;;;;0.50;0.50;;;3.90;99.90;;;;;;4939273;29;20244;-82
2021/03/01 05:39:43;;;;;;;0.60;0.60;;;3.80;99.90;;;;;;4939722;29;20209;-82
2021/03/01 05:42:12;;;;;;;0.50;0.50;;;3.90;99.90;;;;;;4938815;29;20297;-82
2021/03/01 05:44:46;;;;;;;0.50;0.50;;;3.10;99.90;;;;;;4938291;29;20577;-82
2021/03/01 05:47:16;;;;;;;0.50;0.50;;;3.70;99.90;;;;;;4939432;29;20213;-82
2021/03/01 05:50:01;;;;;;;0.50;0.50;;;4.10;99.90;;;;;;4940974;29;20253;-80
2021/03/01 05:52:29;;;;;;;0.50;0.50;;;3.80;99.90;;;;;;4941097;29;20209;-80
2021/03/01 05:55:00;;;;;;;0.50;0.50;;;3.90;99.90;;;;;;4939727;29;20205;-80
2021/03/01 05:57:33;;;;;;;0.55;0.55;;;3.90;99.90;;;;;;4940624;29;20201;-80
2021/03/01 06:00:05;;;;;;;0.50;0.50;;;4.00;99.90;;;;;;4941666;29;20238;-81
2021/03/01 06:02:56;;;;;;;0.50;0.50;;;3.90;99.90;;;;;;4941602;29;20193;-81
2021/03/01 06:05:27;;;;;;;0.50;0.50;;;3.70;99.90;;;;;;4941139;29;20276;-82
2021/03/01 06:07:56;;;;;;;0.50;0.50;;;4.80;99.90;;;;;;4940290;29;20215;-80
2021/03/01 06:10:25;;;;;;;0.50;0.50;;;3.90;99.90;;;;;;4941422;29;20217;-81
2021/03/01 06:13:07;;;;;;;0.50;0.50;;;3.30;99.90;;;;;;4941142;29;20213;-80
2021/03/01 06:15:47;;;;;;;0.55;0.55;;;4.10;99.90;;;;;;4941703;29;20285;-80
2021/03/01 06:18:17;;;;;;;0.50;0.50;;;3.70;99.90;;;;;;4939632;29;20232;-81
2021/03/01 06:21:32;;;;;;;0.50;0.50;;;4.10;99.90;;;;;;4940354;29;20272;-81
2021/03/01 06:24:14;;;;;;;0.50;0.50;;;3.90;99.90;;;;;;4864292;29;20216;-81
2021/03/01 06:26:52;;;;;;;0.50;0.50;;;4.00;99.90;;;;;;4940665;29;20205;-81
2021/03/01 06:29:20;;;;;;;0.60;0.60;;;3.90;99.90;;;;;;4940726;29;20205;-81
2021/03/01 06:31:57;;;;;;;0.60;0.60;;;3.90;99.90;;;;;;4940907;29;20193;-82
2021/03/01 06:34:29;;;;;;;0.50;0.50;;;3.30;99.90;;;;;;4936320;29;20281;-82
2021/03/01 06:37:02;;;;;;;0.50;0.50;;;3.80;99.90;;;;;;4940106;29;20213;-82
2021/03/01 06:39:42;;;;;;;0.50;0.50;;;4.80;99.90;;;;;;4940576;29;20213;-81
2021/03/01 06:42:59;;;;;;;0.60;0.60;;;3.60;99.90;;;;;;4938683;29;20192;-81
2021/03/01 06:46:05;;;;;;;0.60;0.60;;;3.80;99.90;;;;;;4940571;29;20209;-81
2021/03/01 06:48:42;;;;;;;0.57;0.57;;;3.80;99.90;;;;;;4940707;29;20237;-81
2021/03/01 06:51:16;;;;;;;0.60;0.60;;;3.80;99.90;;;;;;4940716;29;20208;-82
2021/03/01 06:57:28;;;;;;;0.50;0.50;;;4.50;99.90;;;;;;4942390;29;20157;-82
2021/03/01 07:00:01;;;;;;;0.60;0.60;;;4.30;99.90;;;;;;4940928;29;20185;-82
2021/03/01 07:03:05;;;;;;;0.57;0.57;;;3.90;99.90;;;;;;4940911;29;20205;-82
2021/03/01 07:06:03;;;;;;;0.60;0.60;;;3.90;99.90;;;;;;5493044;23;20231;-80
2021/03/01 07:13:45;;;;;;;0.60;0.60;;;3.90;99.90;;;;;;5238498;23;20382;-78
2021/03/01 07:16:12;;;;;;;0.60;0.60;;;4.20;99.90;;;;;;4919760;29;20216;-78
2021/03/01 07:18:54;;;;;;;0.50;0.50;;;3.50;99.90;;;;;;5071081;23;20289;-79
2021/03/01 07:21:22;;;;;;;0.50;0.50;;;3.90;99.90;;;;;;4925669;29;20672;-79
2021/03/01 07:23:49;;;;;;;0.50;0.50;;;4.00;99.90;;;;;;4924032;29;20217;-79
2021/03/01 07:26:22;;;;;;;0.60;0.60;;;3.80;99.90;;;;;;5125942;23;20244;-79
2021/03/01 07:29:01;;;;;;;0.50;0.50;;;3.90;99.90;;;;;;4938465;29;20173;-79
2021/03/01 07:37:14;;;;;;;0.50;0.50;;;4.20;99.90;;;;;;5653225;23;20238;-79
2021/03/01 07:39:45;;;;;;;0.60;0.60;;;4.80;99.90;;;;;;4939296;29;20260;-79
2021/03/01 07:44:53;;;;;;;0.60;0.60;;;3.90;99.90;;;;;;5761631;23;20232;-80
2021/03/01 07:47:27;;;;;;;0.50;0.50;;;4.10;99.90;;;;;;4938311;29;20197;-80
2021/03/01 07:49:54;;;;;;;0.60;0.60;;;3.90;99.90;;;;;;4933574;29;20190;-80
2021/03/01 07:55:02;;;;;;;0.52;0.52;;;3.90;99.90;;;;;;5005733;23;20240;-80
2021/03/01 07:57:33;;;;;;;0.60;0.60;;;4.20;99.90;;;;;;4938360;29;20224;-80
2021/03/01 08:02:43;;;;;;;0.60;0.60;;;4.10;99.90;;;;;;5003851;23;20257;-80
2021/03/01 08:05:23;;;;;;;0.60;0.60;;;4.10;99.90;;;;;;4934530;29;20216;-80
2021/03/01 08:07:52;;;;;;;0.60;0.60;;;4.20;99.90;;;;;;4935356;29;20200;-80
2021/03/01 08:10:45;;;;;;;0.60;0.60;;;4.20;99.90;;;;;;4936626;29;20614;-80
2021/03/01 08:13:18;;;;;;;0.60;0.60;;;4.40;99.90;;;;;;4936703;29;20201;-80
2021/03/01 08:15:46;;;;;;;0.57;0.57;;;4.20;99.90;;;;;;4935388;29;20672;-79
2021/03/01 08:18:14;;;;;;;0.52;0.52;;;3.90;99.90;;;;;;5291803;23;20224;-79
2021/03/01 08:20:58;;;;;;;0.50;0.50;;;4.20;99.90;;;;;;4950504;23;20228;-79
2021/03/01 08:26:05;;;;;;;0.50;0.50;;;4.20;99.90;;;;;;5202272;23;20232;-79
2021/03/01 08:28:53;;;;;;;0.57;0.57;;;4.50;99.90;;;;;;4917044;29;20694;-78
2021/03/01 08:31:22;;;;;;;0.60;0.60;;;4.10;99.90;;;;;;4910748;29;20224;-78
2021/03/01 08:33:49;;;;;;;0.57;0.57;;;4.20;99.90;;;;;;4909983;29;20272;-78
2021/03/01 08:36:25;;;;;;;0.57;0.57;;;4.20;99.90;;;;;;4917819;29;20215;-78
2021/03/01 08:38:54;;;;;;;0.52;0.52;;;4.20;99.90;;;;;;4900132;29;20233;-78
2021/03/01 08:41:41;;;;;;;0.60;0.60;;;4.20;99.90;;;;;;4884748;29;20583;-78
2021/03/01 08:44:18;;;;;;;0.60;0.60;;;4.20;99.90;;;;;;4912714;29;20212;-78
2021/03/01 08:46:45;;;;;;;0.52;0.52;;;4.30;99.90;;;;;;4916021;29;20212;-78
2021/03/01 08:49:11;;;;;;;0.60;0.60;;;4.40;99.90;;;;;;4917698;29;20233;-78
2021/03/01 08:51:37;;;;;;;0.50;0.50;;;4.40;99.90;;;;;;4910656;29;20254;-78
2021/03/01 08:54:04;;;;;;;0.60;0.60;;;4.40;99.90;;;;;;4908289;29;20210;-80
2021/03/01 08:56:31;;;;;;;0.60;0.60;;;4.40;99.90;;;;;;4921378;29;20197;-80
2021/03/01 08:58:57;;;;;;;0.50;0.50;;;4.60;99.90;;;;;;4904376;29;20229;-79
2021/03/01 09:01:24;;;;;;;0.50;0.50;;;4.40;99.90;;;;;;4907790;29;20205;-79
2021/03/01 09:03:50;;;;;;;0.52;0.52;;;4.30;99.90;;;;;;4908082;29;20186;-81
2021/03/01 09:06:18;;;;;;;0.55;0.55;;;4.60;99.90;;;;;;4920137;29;20213;-82
2021/03/01 09:08:46;;;;;;;0.50;0.50;;;5.30;99.90;;;;;;5039537;23;20240;-79
2021/03/01 09:11:18;;;;;;;0.60;0.60;;;4.50;99.90;;;;;;4924421;29;20767;-80
2021/03/01 09:13:52;;;;;;;0.57;0.57;;;4.50;99.90;;;;;;4925130;29;20193;-80
2021/03/01 09:16:24;;;;;;;0.60;0.60;;;4.40;99.90;;;;;;4932928;29;20217;-80
2021/03/01 09:21:26;;;;;;;0.60;0.60;;;4.70;99.90;;;;;;5255109;23;20358;-80
2021/03/01 09:23:59;;;;;;;0.50;0.50;;;4.70;99.90;;;;;;5051235;23;20254;-80
2021/03/01 09:26:28;;;;;;;0.60;0.60;;;4.10;99.90;;;;;;5687465;23;20234;-80
2021/03/01 09:28:57;;;;;;;0.50;0.50;;;4.60;99.90;;;;;;4901062;29;20193;-80
2021/03/01 09:34:17;;;;;;;0.60;0.60;;;4.70;99.90;;;;;;4941499;23;20267;-80
2021/03/01 09:36:48;;;;;;;0.60;0.60;;;5.90;99.90;;;;;;4914466;29;20303;-79
2021/03/01 09:39:22;;;;;;;0.55;0.55;;;4.70;99.90;;;;;;4915050;29;20225;-80
2021/03/01 09:41:50;;;;;;;0.60;0.60;;;4.70;99.90;;;;;;4913077;29;20213;-81
2021/03/01 09:44:28;;;;;;;0.60;0.60;;;4.60;99.90;;;;;;4914288;29;20213;-81
2021/03/01 09:47:02;;;;;;;0.60;0.60;;;4.70;99.90;;;;;;4914683;29;20303;-78
2021/03/01 09:49:31;;;;;;;0.60;0.60;;;4.70;99.90;;;;;;4914385;29;20210;-80
2021/03/01 09:51:58;;;;;;;0.60;0.60;;;4.70;99.90;;;;;;4898000;29;20697;-80
2021/03/01 09:54:25;;;;;;;0.50;0.50;;;4.70;99.90;;;;;;4892859;29;20210;-81
2021/03/01 09:56:54;;;;;;;0.57;0.57;;;4.70;99.90;;;;;;4889304;29;20564;-81
2021/03/01 09:59:31;;;;;;;0.60;0.60;;;4.70;99.90;;;;;;4906418;29;20225;-81
2021/03/01 10:02:10;;;;;;;0.50;0.50;;;4.70;99.90;;;;;;4907218;29;20216;-80
2021/03/01 10:04:36;;;;;;;0.50;0.50;;;4.70;99.90;;;;;;4931251;23;20268;-80
2021/03/01 10:07:15;;;;;;;0.50;0.50;;;4.80;99.90;;;;;;4931043;29;20205;-81
2021/03/01 10:09:42;;;;;;;0.50;0.50;;;4.80;99.90;;;;;;4927652;29;20225;-79
2021/03/01 10:12:09;;;;;;;0.60;0.60;;;4.90;99.90;;;;;;4926766;29;20217;-81
2021/03/01 10:14:38;;;;;;;0.60;0.60;;;4.90;99.90;;;;;;4925661;29;20199;-80
2021/03/01 10:17:18;;;;;;;0.50;0.50;;;4.90;99.90;;;;;;4941509;23;20320;-80
2021/03/01 10:19:45;;;;;;;0.60;0.60;;;4.90;99.90;;;;;;4912509;29;20216;-83
2021/03/01 10:22:15;;;;;;;0.60;0.60;;;4.90;99.90;;;;;;4913747;29;20216;-87
2021/03/01 10:24:43;;;;;;;0.60;0.60;;;4.90;99.90;;;;;;4914337;29;20217;-81
2021/03/01 10:27:09;;;;;;;0.50;0.50;;;4.90;99.90;;;;;;4915499;29;20216;-81
2021/03/01 10:29:37;;;;;;;0.60;0.60;;;5.00;99.90;;;;;;4911089;29;20660;-82
2021/03/01 10:32:16;;;;;;;0.50;0.50;;;5.00;99.90;;;;;;4911185;29;20840;-81
2021/03/01 10:34:42;;;;;;;0.50;0.50;;;5.00;99.90;;;;;;4911662;29;20205;-82
2021/03/01 10:37:11;;;;;;;0.52;0.52;;;5.10;99.90;;;;;;4912153;29;20597;-82
2021/03/01 10:39:38;;;;;;;0.60;0.60;;;5.10;99.90;;;;;;4911505;29;20197;-82
2021/03/01 10:42:11;;;;;;;0.60;0.60;;;5.10;99.90;;;;;;4911312;29;20212;-82
2021/03/01 10:44:41;;;;;;;0.50;0.50;;;5.10;99.90;;;;;;4909182;29;20250;-82
2021/03/01 10:47:16;;;;;;;0.60;0.60;;;5.20;99.90;;;;;;4912610;29;20208;-82
2021/03/01 10:49:44;;;;;;;0.55;0.55;;;5.20;99.90;;;;;;4906229;29;20205;-82
2021/03/01 10:52:14;;;;;;;0.60;0.60;;;5.30;99.90;;;;;;4911829;29;20209;-82
2021/03/01 10:54:40;;;;;;;0.60;0.60;;;5.40;99.90;;;;;;4910192;29;20684;-82
2021/03/01 10:57:07;;;;;;;0.50;0.50;;;5.40;99.90;;;;;;4911551;29;20213;-82
2021/03/01 10:59:34;;;;;;;0.60;0.60;;;5.50;99.90;;;;;;4911238;29;20538;-82
2021/03/01 11:02:01;;;;;;;0.50;0.50;;;5.50;99.90;;;;;;4911633;29;20216;-82
2021/03/01 11:04:28;;;;;;;0.60;0.60;;;5.50;99.90;;;;;;4911135;29;20268;-82
2021/03/01 11:06:54;;;;;;;0.60;0.60;;;5.60;99.90;;;;;;4911269;29;20577;-81
2021/03/01 11:09:21;;;;;;;0.57;0.57;;;5.50;99.90;;;;;;4912353;29;20573;-82
2021/03/01 11:11:48;;;;;;;0.55;0.55;;;5.50;99.90;;;;;;4911040;29;20209;-82
2021/03/01 11:14:16;;;;;;;0.60;0.60;;;5.60;99.90;;;;;;4911354;29;20209;-83
2021/03/01 11:16:42;;;;;;;0.60;0.60;;;5.60;99.90;;;;;;4909792;29;20648;-82
2021/03/01 11:19:11;;;;;;;0.60;0.60;;;5.60;99.90;;;;;;4911239;29;20255;-82
2021/03/01 11:21:37;;;;;;;0.50;0.50;;;5.50;99.90;;;;;;4911175;29;20205;-82
2021/03/01 11:24:04;;;;;;;0.57;0.57;;;5.50;99.90;;;;;;4910868;29;20212;-82
2021/03/01 11:26:30;;;;;;;0.60;0.60;;;5.50;99.90;;;;;;4909196;29;20213;-82
2021/03/01 11:28:57;;;;;;;0.60;0.60;;;5.30;99.90;;;;;;4911206;29;20578;-82
2021/03/01 11:31:23;;;;;;;0.60;0.60;;;5.30;99.90;;;;;;4911616;29;20643;-82
2021/03/01 11:33:51;;;;;;;0.57;0.57;;;5.40;99.90;;;;;;4910774;29;20665;-82
2021/03/01 11:36:18;;;;;;;0.60;0.60;;;5.40;99.90;;;;;;4910816;29;20698;-83
2021/03/01 11:38:45;;;;;;;0.60;0.60;;;5.60;99.90;;;;;;4910181;29;20228;-82
2021/03/01 11:41:14;;;;;;;0.60;0.60;;;5.70;99.90;;;;;;4908638;29;20213;-82
2021/03/01 11:43:41;;;;;;;0.60;0.60;;;5.80;99.90;;;;;;4910852;29;20213;-82
2021/03/01 11:46:07;;;;;;;0.60;0.60;;;5.90;99.90;;;;;;4911274;29;20331;-82
2021/03/01 11:48:33;;;;;;;0.60;0.60;;;5.90;99.90;;;;;;4910825;29;20267;-82
2021/03/01 11:50:59;;;;;;;0.60;0.60;;;5.80;99.90;;;;;;4913343;29;20225;-82
2021/03/01 11:53:26;;;;;;;0.60;0.60;;;5.90;99.90;;;;;;4911089;29;20205;-81
2021/03/01 11:55:53;;;;;;;0.60;0.60;;;5.90;99.90;;;;;;4910180;29;20660;-82
2021/03/01 11:58:19;;;;;;;0.60;0.60;;;5.90;99.90;;;;;;4910530;29;20241;-81
2021/03/01 12:00:45;;;;;;;0.60;0.60;;;6.00;99.90;;;;;;4909519;29;20217;-81
2021/03/01 12:03:12;;;;;;;0.52;0.52;;;6.00;99.90;;;;;;4910717;29;20224;-81
2021/03/01 12:05:39;;;;;;;0.60;0.60;;;6.10;99.90;;;;;;4909775;29;20228;-82
2021/03/01 12:08:06;;;;;;;0.60;0.60;;;6.10;99.90;;;;;;4910170;29;20232;-82
2021/03/01 12:10:34;;;;;;;0.60;0.60;;;6.20;99.90;;;;;;4908437;29;20208;-81
2021/03/01 12:13:00;;;;;;;0.50;0.50;;;6.20;99.90;;;;;;4908450;29;20219;-82
2021/03/01 12:15:27;;;;;;;0.60;0.60;;;6.30;99.90;;;;;;4912524;29;20248;-82
2021/03/01 12:17:53;;;;;;;0.60;0.60;;;6.40;99.90;;;;;;4911506;29;20248;-81
2021/03/01 12:20:20;;;;;;;0.50;0.50;;;6.40;99.90;;;;;;4911212;29;20209;-82
2021/03/01 12:22:46;;;;;;;0.60;0.60;;;6.40;99.90;;;;;;4904662;29;20516;-82
2021/03/01 12:25:13;;;;;;;0.50;0.50;;;6.50;99.90;;;;;;4908685;29;20209;-82
2021/03/01 12:27:40;;;;;;;0.50;0.50;;;6.30;99.90;;;;;;4911455;29;20216;-82
2021/03/01 12:30:07;;;;;;;0.60;0.60;;;6.40;99.90;;;;;;4910237;29;20739;-81
2021/03/01 12:32:34;;;;;;;0.50;0.50;;;6.40;99.90;;;;;;4911408;29;20209;-82
2021/03/01 12:35:01;;;;;;;0.50;0.50;;;6.20;99.90;;;;;;4911302;29;20209;-81
2021/03/01 12:37:30;;;;;;;0.60;0.60;;;6.40;99.90;;;;;;4911652;29;20209;-82
2021/03/01 12:39:56;;;;;;;0.52;0.52;;;6.50;99.90;;;;;;4910820;29;20265;-82
2021/03/01 12:42:23;;;;;;;0.60;0.60;;;6.60;99.90;;;;;;4911551;29;20209;-81
2021/03/01 12:44:51;;;;;;;0.60;0.60;;;6.30;99.90;;;;;;4910952;29;20224;-81
2021/03/01 12:47:21;;;;;;;0.52;0.52;;;6.30;99.90;;;;;;4910939;29;20216;-81
2021/03/01 12:49:47;;;;;;;0.60;0.60;;;6.50;99.90;;;;;;4911342;29;20209;-81
2021/03/01 12:52:13;;;;;;;0.50;0.50;;;6.40;99.90;;;;;;4911738;29;20217;-80
2021/03/01 12:54:39;;;;;;;0.60;0.60;;;6.30;99.90;;;;;;4910927;29;20217;-80
2021/03/01 12:57:08;;;;;;;0.50;0.50;;;6.20;99.90;;;;;;4910674;29;20224;-81
2021/03/01 12:59:34;;;;;;;0.60;0.60;;;6.30;99.90;;;;;;4910603;29;20311;-80
2021/03/01 13:02:03;;;;;;;0.60;0.60;;;6.30;99.90;;;;;;4909422;29;20201;-81
2021/03/01 13:04:29;;;;;;;0.50;0.50;;;6.10;99.90;;;;;;4911380;29;20213;-82
2021/03/01 13:06:55;;;;;;;0.50;0.50;;;6.20;99.90;;;;;;4912416;29;20220;-80
2021/03/01 13:09:21;;;;;;;0.50;0.50;;;6.40;99.90;;;;;;4905291;29;20197;-82
2021/03/01 13:11:47;;;;;;;0.60;0.60;;;6.70;99.90;;;;;;4899174;29;20209;-81
2021/03/01 13:14:13;;;;;;;0.60;0.60;;;6.70;99.90;;;;;;4905250;29;20214;-82
2021/03/01 13:16:39;;;;;;;0.50;0.50;;;7.00;99.90;;;;;;4907171;29;20748;-81
2021/03/01 13:19:07;;;;;;;0.60;0.60;;;7.20;99.90;;;;;;4913882;29;20595;-81
2021/03/01 13:21:33;;;;;;;0.50;0.50;;;7.30;99.90;;;;;;4909603;29;20240;-82
2021/03/01 13:24:00;;;;;;;0.50;0.50;;;7.50;99.90;;;;;;4914003;29;20264;-81
2021/03/01 13:26:26;;;;;;;0.60;0.60;;;7.90;99.90;;;;;;4914346;29;20691;-82
2021/03/01 13:28:52;;;;;;;0.60;0.60;;;8.30;99.90;;;;;;4914296;29;20213;-81
2021/03/01 13:31:18;;;;;;;0.60;0.60;;;8.80;99.90;;;;;;4915113;29;20219;-81
2021/03/01 13:33:45;;;;;;;0.60;0.60;;;9.10;99.90;;;;;;4914166;29;20605;-81
2021/03/01 13:36:15;;;;;;;0.60;0.60;;;9.20;99.90;;;;;;4914973;29;20684;-81
2021/03/01 13:38:41;;;;;;;0.55;0.55;;;9.30;99.90;;;;;;4913507;29;20276;-81
2021/03/01 13:41:07;;;;;;;0.60;0.60;;;9.20;99.90;;;;;;4913304;29;20201;-81
2021/03/01 13:43:35;;;;;;;0.60;0.60;;;9.50;99.90;;;;;;4913749;29;20373;-82
2021/03/01 13:46:01;;;;;;;0.55;0.55;;;9.50;99.90;;;;;;4913790;29;20696;-81
2021/03/01 13:48:27;;;;;;;0.60;0.60;;;9.30;99.90;;;;;;4913820;29;20290;-81
2021/03/01 13:50:53;;;;;;;0.50;0.50;;;9.30;99.90;;;;;;4913611;29;20233;-81
2021/03/01 13:53:23;;;;;;;0.60;0.60;;;9.30;99.90;;;;;;4913528;29;20209;-81
2021/03/01 13:55:49;;;;;;;0.50;0.50;;;8.70;99.90;;;;;;4913149;29;20209;-81
2021/03/01 13:58:16;;;;;;;0.60;0.60;;;8.60;99.90;;;;;;4907382;29;20738;-80
2021/03/01 14:00:42;;;;;;;0.50;0.50;;;8.80;99.90;;;;;;4908289;29;20565;-81
2021/03/01 14:03:08;;;;;;;0.60;0.60;;;8.90;99.90;;;;;;4911990;29;20206;-81
2021/03/01 14:05:34;;;;;;;0.60;0.60;;;9.10;99.90;;;;;;4913464;29;20265;-82
2021/03/01 14:08:00;;;;;;;0.50;0.50;;;9.20;99.90;;;;;;4913662;29;20205;-82
2021/03/01 14:10:27;;;;;;;0.60;0.60;;;9.20;99.90;;;;;;4911056;29;20205;-82
2021/03/01 14:12:54;;;;;;;0.50;0.50;;;8.60;99.90;;;;;;4913648;29;20228;-82
2021/03/01 14:15:20;;;;;;;0.60;0.60;;;8.90;99.90;;;;;;4913288;29;20600;-81
2021/03/01 14:17:46;;;;;;;0.50;0.50;;;9.00;99.90;;;;;;4912539;29;20237;-82
2021/03/01 14:20:13;;;;;;;0.60;0.60;;;8.90;99.90;;;;;;4912068;29;20668;-80
2021/03/01 14:22:41;;;;;;;0.60;0.60;;;9.30;99.90;;;;;;4913000;29;20252;-81
2021/03/01 14:25:11;;;;;;;0.55;0.55;;;9.40;99.90;;;;;;4912900;29;20213;-81
2021/03/01 14:27:38;;;;;;;0.50;0.50;;;9.40;99.90;;;;;;4913416;29;20201;-80
2021/03/01 14:30:05;;;;;;;0.50;0.50;;;9.30;99.90;;;;;;4913149;29;20582;-80
2021/03/01 14:32:32;;;;;;;0.60;0.60;;;9.40;99.90;;;;;;4911903;29;20593;-80
2021/03/01 14:34:58;;;;;;;0.60;0.60;;;9.40;99.90;;;;;;4912412;29;20201;-80
2021/03/01 14:37:24;;;;;;;0.60;0.60;;;9.30;99.90;;;;;;4913940;29;20213;-80
2021/03/01 14:39:50;;;;;;;0.60;0.60;;;9.10;99.90;;;;;;4912343;29;20239;-80
2021/03/01 14:42:17;;;;;;;0.60;0.60;;;9.10;99.90;;;;;;4913477;29;20216;-80
2021/03/01 14:44:47;;;;;;;0.50;0.50;;;9.10;99.90;;;;;;4913179;29;20216;-80
2021/03/01 14:47:13;;;;;;;0.60;0.60;;;9.30;99.90;;;;;;4913693;29;20205;-80
2021/03/01 14:49:39;;;;;;;0.60;0.60;;;9.00;99.90;;;;;;4913343;29;20260;-80
2021/03/01 14:52:05;;;;;;;0.60;0.60;;;8.90;99.90;;;;;;4913394;29;20272;-81
2021/03/01 14:54:32;;;;;;;0.50;0.50;;;9.00;99.90;;;;;;4912762;29;20209;-80
2021/03/01 14:56:58;;;;;;;0.60;0.60;;;9.00;99.90;;;;;;4912933;29;20217;-80
2021/03/01 14:59:24;;;;;;;0.60;0.60;;;9.00;99.90;;;;;;4913368;29;20284;-80
2021/03/01 15:01:51;;;;;;;0.57;0.57;;;8.70;99.90;;;;;;4913135;29;20217;-81
2021/03/01 15:04:17;;;;;;;0.60;0.60;;;8.80;99.90;;;;;;4912861;29;20208;-80
2021/03/01 15:06:43;;;;;;;0.60;0.60;;;9.10;99.90;;;;;;4912858;29;20208;-80
2021/03/01 15:09:09;;;;;;;0.60;0.60;;;9.20;99.90;;;;;;4912977;29;20664;-80
2021/03/01 15:11:35;;;;;;;0.60;0.60;;;9.30;99.90;;;;;;4912464;29;20212;-82
2021/03/01 15:14:02;;;;;;;0.60;0.60;;;9.40;99.90;;;;;;4912679;29;20221;-82
2021/03/01 15:16:36;;;;;;;0.60;0.60;;;9.10;99.90;;;;;;4912887;29;20209;-82
2021/03/01 15:19:03;;;;;;;0.60;0.60;;;8.90;99.90;;;;;;4899872;29;20241;-81
2021/03/01 15:21:29;;;;;;;0.57;0.57;;;9.00;99.90;;;;;;4897927;29;20205;-81
2021/03/01 15:23:56;;;;;;;0.60;0.60;;;9.10;99.90;;;;;;4902334;29;20206;-81
2021/03/01 15:26:22;;;;;;;0.50;0.50;;;9.00;99.90;;;;;;4904509;29;20295;-81
2021/03/01 15:28:49;;;;;;;0.60;0.60;;;9.00;99.90;;;;;;4902125;29;20241;-82
2021/03/01 15:31:15;;;;;;;0.60;0.60;;;8.90;99.90;;;;;;4893934;29;20205;-80
2021/03/01 15:33:41;;;;;;;0.60;0.60;;;8.70;99.90;;;;;;4894258;29;20635;-82
2021/03/01 15:36:11;;;;;;;0.60;0.60;;;8.50;99.90;;;;;;4894466;29;20213;-82
2021/03/01 15:38:37;;;;;;;0.60;0.60;;;8.40;99.90;;;;;;4891813;29;20221;-79
2021/03/01 15:41:07;;;;;;;0.60;0.60;;;8.30;99.90;;;;;;4893414;29;20202;-81
2021/03/01 15:43:35;;;;;;;0.60;0.60;;;8.40;99.90;;;;;;4894266;29;20206;-82
2021/03/01 15:46:01;;;;;;;0.60;0.60;;;8.60;99.90;;;;;;4894175;29;20214;-82
2021/03/01 15:48:28;;;;;;;0.60;0.60;;;8.70;99.90;;;;;;4894108;29;20210;-79
2021/03/01 15:50:54;;;;;;;0.60;0.60;;;8.50;99.90;;;;;;4894245;29;20603;-78
2021/03/01 15:53:23;;;;;;;0.60;0.60;;;8.60;99.90;;;;;;4893229;29;20214;-79
2021/03/01 15:55:51;;;;;;;0.60;0.60;;;8.50;99.90;;;;;;4889717;29;20665;-80
2021/03/01 15:58:17;;;;;;;0.60;0.60;;;8.50;99.90;;;;;;4893913;29;20225;-80
2021/03/01 16:00:44;;;;;;;0.60;0.60;;;8.40;99.90;;;;;;4893744;29;20686;-80
2021/03/01 16:03:14;;;;;;;0.60;0.60;;;8.20;99.90;;;;;;4891922;29;20206;-81
2021/03/01 16:05:40;;;;;;;0.60;0.60;;;8.20;99.90;;;;;;4890467;29;20603;-81
2021/03/01 16:08:07;;;;;;;0.60;0.60;;;8.30;99.90;;;;;;4890267;29;20213;-81
2021/03/01 16:10:34;;;;;;;0.60;0.60;;;8.20;99.90;;;;;;4892347;29;20571;-81
2021/03/01 16:13:00;;;;;;;0.60;0.60;;;8.20;99.90;;;;;;4892533;29;20224;-81
2021/03/01 16:15:26;;;;;;;0.60;0.60;;;8.10;99.90;;;;;;4893100;29;20206;-81
2021/03/01 16:17:52;;;;;;;0.60;0.60;;;7.90;99.90;;;;;;4892834;29;20287;-81
2021/03/01 16:20:20;;;;;;;0.60;0.60;;;7.80;99.90;;;;;;4892672;29;20293;-80